Time,TemperatureF,DewpointF,PressureIn,WindDirection,WindDirectionDegrees,WindSpeedMPH,WindSpeedGustMPH,Humidity,HourlyPrecipIn,Conditions,Clouds,dailyrainin,SoftwareType,DateUTC
2013-07-20 00:00:00,78.5,73.3,29.65,WSW,245,0.0,1.0,84,0.00,,,0.44,Wunderground v.1.12,2013-07-20 04:00:00,
2013-07-20 00:02:00,78.5,73.3,29.65,SSW,206,0.0,1.0,84,0.00,,,0.44,Wunderground v.1.12,2013-07-20 04:02:00,
2013-07-20 00:03:00,78.5,73.3,29.65,SW,229,0.0,1.0,84,0.00,,,0.44,Wunderground v.1.12,2013-07-20 04:03:00,
2013-07-20 00:05:00,78.5,73.3,29.65,WSW,246,2.0,2.0,84,0.00,,,0.44,Wunderground v.1.12,2013-07-20 04:05:00,
2013-07-20 00:09:00,78.6,73.4,29.66,WSW,246,0.0,1.0,84,0.00,,,0.44,Wunderground v.1.12,2013-07-20 04:09:00,
2013-07-20 00:10:00,78.6,73.4,29.66,WSW,246,0.0,1.0,84,0.00,,,0.44,Wunderground v.1.12,2013-07-20 04:10:00,
2013-07-20 00:17:00,78.8,73.6,29.66,WSW,246,2.0,2.0,84,0.00,,,0.44,Wunderground v.1.12,2013-07-20 04:17:00,
2013-07-20 00:22:00,79.0,74.1,29.66,WNW,287,13.0,13.0,85,0.00,,,0.44,Wunderground v.1.12,2013-07-20 04:22:00,
2013-07-20 00:28:00,77.2,69.0,29.70,NW,325,4.0,9.0,76,0.00,,,0.45,Wunderground v.1.12,2013-07-20 04:28:00,
2013-07-20 00:33:00,74.7,67.4,29.70,West,270,8.0,12.0,78,0.56,,,0.46,Wunderground v.1.12,2013-07-20 04:33:00,
2013-07-20 00:39:00,72.7,66.5,29.71,SSW,198,9.0,13.0,81,1.16,,,0.56,Wunderground v.1.12,2013-07-20 04:39:00,
2013-07-20 00:44:00,71.1,66.4,29.71,WSW,250,5.0,13.0,85,0.59,,,0.69,Wunderground v.1.12,2013-07-20 04:44:00,
2013-07-20 00:50:00,70.8,67.4,29.71,SW,225,5.0,9.0,89,0.42,,,0.75,Wunderground v.1.12,2013-07-20 04:50:00,
2013-07-20 00:57:00,71.3,68.5,29.69,SW,231,8.0,15.0,91,0.08,,,0.75,Wunderground v.1.12,2013-07-20 04:57:00,
2013-07-20 01:02:00,71.5,68.7,29.69,WSW,241,2.0,8.0,91,0.05,,,0.75,Wunderground v.1.12,2013-07-20 05:02:00,
2013-07-20 01:08:00,71.3,68.9,29.68,WSW,239,4.0,5.0,92,0.04,,,0.76,Wunderground v.1.12,2013-07-20 05:08:00,
2013-07-20 01:13:00,71.5,69.1,29.68,West,260,8.0,8.0,92,0.04,,,0.76,Wunderground v.1.12,2013-07-20 05:13:00,
2013-07-20 01:19:00,71.5,69.4,29.68,West,259,0.0,4.0,93,0.04,,,0.77,Wunderground v.1.12,2013-07-20 05:19:00,
2013-07-20 01:25:00,71.6,69.8,29.68,SW,227,5.0,5.0,94,0.04,,,0.77,Wunderground v.1.12,2013-07-20 05:25:00,
2013-07-20 01:30:00,72.0,70.2,29.68,WSW,242,6.0,6.0,94,0.07,,,0.78,Wunderground v.1.12,2013-07-20 05:30:00,
2013-07-20 01:37:00,72.3,70.8,29.68,WSW,238,0.0,4.0,95,0.10,,,0.80,Wunderground v.1.12,2013-07-20 05:37:00,
2013-07-20 01:42:00,72.3,70.8,29.68,WSW,238,0.0,4.0,95,0.23,,,0.82,Wunderground v.1.12,2013-07-20 05:42:00,
2013-07-20 01:48:00,72.3,71.1,29.68,WSW,238,0.0,0.0,96,0.17,,,0.84,Wunderground v.1.12,2013-07-20 05:48:00,
2013-07-20 01:53:00,72.5,71.3,29.66,WSW,238,1.0,1.0,96,0.11,,,0.84,Wunderground v.1.12,2013-07-20 05:53:00,
2013-07-20 01:59:00,72.5,71.3,29.66,SW,233,1.0,1.0,96,0.06,,,0.85,Wunderground v.1.12,2013-07-20 05:59:00,
2013-07-20 02:04:00,72.5,71.3,29.66,SW,217,0.0,4.0,96,0.06,,,0.85,Wunderground v.1.12,2013-07-20 06:04:00,
2013-07-20 02:09:00,72.5,71.3,29.67,SW,217,0.0,1.0,96,0.05,,,0.85,Wunderground v.1.12,2013-07-20 06:09:00,
2013-07-20 02:14:00,72.3,71.1,29.67,SW,217,0.0,4.0,96,0.04,,,0.85,Wunderground v.1.12,2013-07-20 06:14:00,
2013-07-20 02:19:00,72.3,71.1,29.67,SW,217,0.0,1.0,96,0.00,,,0.85,Wunderground v.1.12,2013-07-20 06:19:00,
2013-07-20 02:24:00,72.3,71.1,29.68,SW,221,5.0,6.0,96,0.00,,,0.85,Wunderground v.1.12,2013-07-20 06:24:00,
2013-07-20 02:29:00,72.0,70.5,29.68,WSW,243,4.0,4.0,95,0.00,,,0.85,Wunderground v.1.12,2013-07-20 06:29:00,
2013-07-20 02:34:00,71.6,70.1,29.68,WSW,237,5.0,8.0,95,0.00,,,0.85,Wunderground v.1.12,2013-07-20 06:34:00,
2013-07-20 02:39:00,71.6,70.4,29.67,SW,233,0.0,6.0,96,0.00,,,0.85,Wunderground v.1.12,2013-07-20 06:39:00,
2013-07-20 02:44:00,71.5,70.3,29.67,SW,233,1.0,2.0,96,0.00,,,0.85,Wunderground v.1.12,2013-07-20 06:44:00,
2013-07-20 02:49:00,71.5,70.3,29.67,SW,233,2.0,4.0,96,0.00,,,0.85,Wunderground v.1.12,2013-07-20 06:49:00,
2013-07-20 02:54:00,71.6,70.4,29.67,SW,232,0.0,2.0,96,0.00,,,0.85,Wunderground v.1.12,2013-07-20 06:54:00,
2013-07-20 02:59:00,71.6,70.4,29.67,SW,232,0.0,0.0,96,0.00,,,0.85,Wunderground v.1.12,2013-07-20 06:59:00,
2013-07-20 03:04:00,71.5,70.3,29.67,SW,232,0.0,0.0,96,0.00,,,0.85,Wunderground v.1.12,2013-07-20 07:04:00,
2013-07-20 03:09:00,71.5,70.3,29.67,SW,232,2.0,5.0,96,0.00,,,0.85,Wunderground v.1.12,2013-07-20 07:09:00,
2013-07-20 03:14:00,71.6,70.4,29.67,WSW,237,6.0,6.0,96,0.00,,,0.85,Wunderground v.1.12,2013-07-20 07:14:00,
2013-07-20 03:19:00,71.5,70.3,29.67,WSW,257,1.0,6.0,96,0.00,,,0.85,Wunderground v.1.12,2013-07-20 07:19:00,
2013-07-20 03:24:00,71.5,70.3,29.68,West,262,0.0,4.0,96,0.00,,,0.85,Wunderground v.1.12,2013-07-20 07:24:00,
2013-07-20 03:29:00,71.3,70.1,29.68,WSW,246,0.0,6.0,96,0.00,,,0.85,Wunderground v.1.12,2013-07-20 07:29:00,
2013-07-20 03:34:00,71.1,69.9,29.68,West,281,2.0,2.0,96,0.00,,,0.85,Wunderground v.1.12,2013-07-20 07:34:00,
2013-07-20 03:39:00,71.1,69.9,29.67,NNW,332,4.0,5.0,96,0.00,,,0.85,Wunderground v.1.12,2013-07-20 07:39:00,
2013-07-20 03:44:00,70.9,69.7,29.67,NNW,340,0.0,1.0,96,0.00,,,0.85,Wunderground v.1.12,2013-07-20 07:44:00,
2013-07-20 03:49:00,70.9,69.7,29.67,NNW,339,1.0,4.0,96,0.00,,,0.85,Wunderground v.1.12,2013-07-20 07:49:00,
2013-07-20 03:54:00,70.8,69.6,29.66,NNW,339,0.0,1.0,96,0.00,,,0.85,Wunderground v.1.12,2013-07-20 07:54:00,
2013-07-20 03:59:00,70.8,69.6,29.66,NNW,340,0.0,1.0,96,0.00,,,0.85,Wunderground v.1.12,2013-07-20 07:59:00,
2013-07-20 04:05:00,70.8,69.6,29.66,NNW,340,0.0,0.0,96,0.00,,,0.85,Wunderground v.1.12,2013-07-20 08:05:00,
2013-07-20 04:10:00,70.8,69.6,29.66,NNW,340,0.0,0.0,96,0.00,,,0.85,Wunderground v.1.12,2013-07-20 08:10:00,
2013-07-20 04:15:00,70.6,69.4,29.66,NNW,340,0.0,0.0,96,0.00,,,0.85,Wunderground v.1.12,2013-07-20 08:15:00,
2013-07-20 04:20:00,70.6,69.4,29.66,NNW,340,0.0,0.0,96,0.00,,,0.85,Wunderground v.1.12,2013-07-20 08:20:00,
2013-07-20 04:25:00,70.6,69.4,29.66,NNW,340,0.0,1.0,96,0.00,,,0.85,Wunderground v.1.12,2013-07-20 08:25:00,
2013-07-20 04:30:00,70.6,69.4,29.66,NNW,339,0.0,3.0,96,0.00,,,0.85,Wunderground v.1.12,2013-07-20 08:30:00,
2013-07-20 04:35:00,70.6,69.4,29.66,NNW,339,0.0,1.0,96,0.00,,,0.85,Wunderground v.1.12,2013-07-20 08:35:00,
2013-07-20 04:40:00,70.6,69.4,29.66,NNW,339,0.0,0.0,96,0.00,,,0.85,Wunderground v.1.12,2013-07-20 08:40:00,
2013-07-20 04:45:00,70.6,69.4,29.66,NNW,339,0.0,0.0,96,0.00,,,0.85,Wunderground v.1.12,2013-07-20 08:45:00,
2013-07-20 04:50:00,70.4,69.2,29.66,NNW,339,0.0,0.0,96,0.00,,,0.85,Wunderground v.1.12,2013-07-20 08:50:00,
2013-07-20 04:55:00,70.4,69.2,29.66,NNW,339,0.0,0.0,96,0.00,,,0.85,Wunderground v.1.12,2013-07-20 08:55:00,
2013-07-20 05:00:00,70.3,69.1,29.66,NNW,339,0.0,0.0,96,0.00,,,0.85,Wunderground v.1.12,2013-07-20 09:00:00,
2013-07-20 05:05:00,70.3,69.1,29.66,NNW,339,0.0,0.0,96,0.00,,,0.85,Wunderground v.1.12,2013-07-20 09:05:00,
2013-07-20 05:10:00,70.3,69.1,29.67,NNW,339,0.0,0.0,96,0.00,,,0.85,Wunderground v.1.12,2013-07-20 09:10:00,
2013-07-20 05:15:00,70.3,69.1,29.67,NNW,339,0.0,0.0,96,0.00,,,0.85,Wunderground v.1.12,2013-07-20 09:15:00,
2013-07-20 05:20:00,70.4,69.2,29.67,NNW,339,0.0,0.0,96,0.00,,,0.85,Wunderground v.1.12,2013-07-20 09:20:00,
2013-07-20 05:25:00,70.4,69.2,29.68,NNW,339,0.0,0.0,96,0.00,,,0.85,Wunderground v.1.12,2013-07-20 09:25:00,
2013-07-20 05:30:00,70.4,69.2,29.68,NNW,339,0.0,0.0,96,0.00,,,0.85,Wunderground v.1.12,2013-07-20 09:30:00,
2013-07-20 05:35:00,70.4,69.2,29.68,NNW,339,0.0,0.0,96,0.00,,,0.85,Wunderground v.1.12,2013-07-20 09:35:00,
2013-07-20 05:40:00,70.3,69.1,29.68,NNW,339,0.0,0.0,96,0.00,,,0.85,Wunderground v.1.12,2013-07-20 09:40:00,
2013-07-20 05:45:00,70.3,69.1,29.68,NNW,339,0.0,0.0,96,0.00,,,0.85,Wunderground v.1.12,2013-07-20 09:45:00,
2013-07-20 05:50:00,70.3,69.1,29.68,NNW,339,0.0,0.0,96,0.00,,,0.85,Wunderground v.1.12,2013-07-20 09:50:00,
2013-07-20 05:55:00,70.1,68.9,29.69,NNW,339,0.0,0.0,96,0.00,,,0.85,Wunderground v.1.12,2013-07-20 09:55:00,
2013-07-20 06:00:00,70.1,68.9,29.69,NNW,339,0.0,0.0,96,0.00,,,0.85,Wunderground v.1.12,2013-07-20 10:00:00,
2013-07-20 06:05:00,69.9,68.7,29.69,NNW,339,0.0,0.0,96,0.00,,,0.85,Wunderground v.1.12,2013-07-20 10:05:00,
2013-07-20 06:10:00,69.9,69.0,29.70,NNW,339,0.0,0.0,97,0.00,,,0.85,Wunderground v.1.12,2013-07-20 10:10:00,
2013-07-20 06:15:00,69.9,69.0,29.70,NNW,339,0.0,0.0,97,0.00,,,0.85,Wunderground v.1.12,2013-07-20 10:15:00,
2013-07-20 06:20:00,69.9,69.0,29.70,NNW,339,0.0,0.0,97,0.00,,,0.85,Wunderground v.1.12,2013-07-20 10:20:00,
2013-07-20 06:25:00,69.9,69.0,29.71,NNW,339,0.0,0.0,97,0.00,,,0.85,Wunderground v.1.12,2013-07-20 10:25:00,
2013-07-20 06:30:00,69.9,69.0,29.71,NNW,339,0.0,0.0,97,0.00,,,0.85,Wunderground v.1.12,2013-07-20 10:30:00,
2013-07-20 06:35:00,70.1,69.2,29.71,NNW,339,0.0,0.0,97,0.00,,,0.85,Wunderground v.1.12,2013-07-20 10:35:00,
2013-07-20 06:40:00,70.3,69.4,29.71,NNW,339,0.0,0.0,97,0.00,,,0.85,Wunderground v.1.12,2013-07-20 10:40:00,
2013-07-20 06:45:00,70.3,69.4,29.71,NNW,339,0.0,0.0,97,0.00,,,0.85,Wunderground v.1.12,2013-07-20 10:45:00,
2013-07-20 06:50:00,70.3,69.4,29.71,NNW,339,0.0,0.0,97,0.00,,,0.85,Wunderground v.1.12,2013-07-20 10:50:00,
2013-07-20 06:55:00,70.3,69.4,29.72,NNW,339,0.0,0.0,97,0.00,,,0.85,Wunderground v.1.12,2013-07-20 10:55:00,
2013-07-20 07:00:00,70.4,69.5,29.72,NNW,339,0.0,0.0,97,0.00,,,0.85,Wunderground v.1.12,2013-07-20 11:00:00,
2013-07-20 07:05:00,70.6,69.7,29.72,NNW,339,0.0,0.0,97,0.00,,,0.85,Wunderground v.1.12,2013-07-20 11:05:00,
2013-07-20 07:10:00,70.8,69.9,29.73,NNW,339,0.0,0.0,97,0.00,,,0.85,Wunderground v.1.12,2013-07-20 11:10:00,
2013-07-20 07:15:00,70.8,69.9,29.73,NNW,339,0.0,0.0,97,0.00,,,0.85,Wunderground v.1.12,2013-07-20 11:15:00,
2013-07-20 07:20:00,70.9,70.0,29.73,NNW,339,0.0,0.0,97,0.00,,,0.85,Wunderground v.1.12,2013-07-20 11:20:00,
2013-07-20 07:25:00,70.9,70.0,29.74,NNW,339,0.0,1.0,97,0.00,,,0.85,Wunderground v.1.12,2013-07-20 11:25:00,
2013-07-20 07:30:00,70.9,70.0,29.74,NNW,339,0.0,0.0,97,0.00,,,0.85,Wunderground v.1.12,2013-07-20 11:30:00,
2013-07-20 07:35:00,71.1,70.2,29.74,NNW,339,0.0,1.0,97,0.00,,,0.85,Wunderground v.1.12,2013-07-20 11:35:00,
2013-07-20 07:40:00,71.1,70.2,29.74,NE,56,2.0,6.0,97,0.00,,,0.85,Wunderground v.1.12,2013-07-20 11:40:00,
2013-07-20 07:45:00,71.3,70.4,29.74,NNE,27,2.0,3.0,97,0.00,,,0.85,Wunderground v.1.12,2013-07-20 11:45:00,
2013-07-20 07:50:00,71.3,70.4,29.74,NE,40,2.0,6.0,97,0.00,,,0.85,Wunderground v.1.12,2013-07-20 11:50:00,
2013-07-20 07:55:00,71.3,70.4,29.75,NNE,19,1.0,6.0,97,0.00,,,0.85,Wunderground v.1.12,2013-07-20 11:55:00,
2013-07-20 08:00:00,71.1,70.2,29.75,NNE,16,7.0,7.0,97,0.00,,,0.85,Wunderground v.1.12,2013-07-20 12:00:00,
2013-07-20 08:05:00,70.8,69.9,29.75,ENE,60,1.0,7.0,97,0.00,,,0.85,Wunderground v.1.12,2013-07-20 12:05:00,
2013-07-20 08:10:00,70.3,69.4,29.75,NE,53,0.0,5.0,97,0.00,,,0.85,Wunderground v.1.12,2013-07-20 12:10:00,
2013-07-20 08:16:00,69.9,69.0,29.75,NE,53,0.0,3.0,97,0.00,,,0.85,Wunderground v.1.12,2013-07-20 12:16:00,
2013-07-20 08:21:00,69.9,69.0,29.75,East,98,2.0,3.0,97,0.00,,,0.85,Wunderground v.1.12,2013-07-20 12:21:00,
2013-07-20 08:26:00,69.8,68.9,29.75,NE,56,0.0,7.0,97,0.00,,,0.85,Wunderground v.1.12,2013-07-20 12:26:00,
2013-07-20 08:31:00,69.6,68.7,29.75,ENE,75,0.0,5.0,97,0.00,,,0.85,Wunderground v.1.12,2013-07-20 12:31:00,
2013-07-20 08:36:00,69.4,68.5,29.75,NE,40,5.0,7.0,97,0.00,,,0.85,Wunderground v.1.12,2013-07-20 12:36:00,
2013-07-20 08:41:00,69.4,68.5,29.75,East,79,3.0,8.0,97,0.00,,,0.85,Wunderground v.1.12,2013-07-20 12:41:00,
2013-07-20 08:46:00,69.1,67.9,29.75,NNE,19,0.0,7.0,96,0.00,,,0.85,Wunderground v.1.12,2013-07-20 12:46:00,
2013-07-20 08:51:00,69.3,68.1,29.75,NE,45,3.0,5.0,96,0.00,,,0.85,Wunderground v.1.12,2013-07-20 12:51:00,
2013-07-20 08:56:00,69.8,68.6,29.76,ENE,69,0.0,4.0,96,0.00,,,0.85,Wunderground v.1.12,2013-07-20 12:56:00,
2013-07-20 09:01:00,70.4,69.2,29.76,NE,35,0.0,3.0,96,0.00,,,0.85,Wunderground v.1.12,2013-07-20 13:01:00,
2013-07-20 09:06:00,70.6,69.1,29.76,NE,35,0.0,3.0,95,0.00,,,0.85,Wunderground v.1.12,2013-07-20 13:06:00,
2013-07-20 09:11:00,70.8,69.0,29.76,NNE,33,0.0,3.0,94,0.00,,,0.85,Wunderground v.1.12,2013-07-20 13:11:00,
2013-07-20 09:16:00,70.9,68.5,29.76,NE,34,0.0,5.0,92,0.00,,,0.85,Wunderground v.1.12,2013-07-20 13:16:00,
2013-07-20 09:21:00,70.9,68.1,29.76,NNE,24,0.0,5.0,91,0.00,,,0.85,Wunderground v.1.12,2013-07-20 13:21:00,
2013-07-20 09:26:00,71.6,68.5,29.76,NNE,24,0.0,2.0,90,0.00,,,0.85,Wunderground v.1.12,2013-07-20 13:26:00,
2013-07-20 09:31:00,72.1,68.3,29.76,NE,47,0.0,4.0,88,0.00,,,0.85,Wunderground v.1.12,2013-07-20 13:31:00,
2013-07-20 09:36:00,72.5,67.7,29.76,East,98,4.0,5.0,85,0.00,,,0.85,Wunderground v.1.12,2013-07-20 13:36:00,
2013-07-20 09:41:00,73.2,67.4,29.77,ENE,77,0.0,4.0,82,0.00,,,0.85,Wunderground v.1.12,2013-07-20 13:41:00,
2013-07-20 09:46:00,73.9,66.6,29.77,ESE,112,5.0,6.0,78,0.00,,,0.85,Wunderground v.1.12,2013-07-20 13:46:00,
2013-07-20 09:51:00,74.4,65.6,29.77,ESE,106,0.0,4.0,74,0.00,,,0.85,Wunderground v.1.12,2013-07-20 13:51:00,
2013-07-20 09:56:00,75.3,66.8,29.77,East,84,2.0,5.0,75,0.00,,,0.85,Wunderground v.1.12,2013-07-20 13:56:00,
2013-07-20 10:01:00,76.0,65.9,29.77,East,98,0.0,4.0,71,0.00,,,0.85,Wunderground v.1.12,2013-07-20 14:01:00,
2013-07-20 10:06:00,76.5,66.4,29.77,East,98,0.0,2.0,71,0.00,,,0.85,Wunderground v.1.12,2013-07-20 14:06:00,
2013-07-20 10:11:00,77.0,66.9,29.77,East,98,2.0,5.0,71,0.00,,,0.85,Wunderground v.1.12,2013-07-20 14:11:00,
2013-07-20 10:16:00,77.2,66.7,29.77,ESE,119,1.0,5.0,70,0.00,,,0.85,Wunderground v.1.12,2013-07-20 14:16:00,
2013-07-20 10:21:00,77.6,67.0,29.77,ESE,119,0.0,3.0,70,0.00,,,0.85,Wunderground v.1.12,2013-07-20 14:21:00,
2013-07-20 10:27:00,78.1,66.2,29.77,ENE,68,2.0,3.0,67,0.00,,,0.00,Wunderground v.1.12,2013-07-20 14:27:00,
2013-07-20 10:32:00,78.3,66.4,29.77,ENE,69,0.0,4.0,67,0.00,,,0.00,Wunderground v.1.12,2013-07-20 14:32:00,
2013-07-20 10:38:00,78.6,66.7,29.77,SE,129,0.0,3.0,67,0.00,,,0.00,Wunderground v.1.12,2013-07-20 14:38:00,
2013-07-20 10:43:00,78.3,66.0,29.77,SE,129,0.0,1.0,66,0.00,,,0.00,Wunderground v.1.12,2013-07-20 14:43:00,
2013-07-20 10:48:00,78.5,66.2,29.77,SE,129,0.0,0.0,66,0.00,,,0.00,Wunderground v.1.12,2013-07-20 14:48:00,
2013-07-20 10:53:00,79.0,65.8,29.77,SE,129,0.0,0.0,64,0.00,,,0.00,Wunderground v.1.12,2013-07-20 14:53:00,
2013-07-20 10:58:00,79.4,66.6,29.77,ESE,119,0.0,1.0,65,0.00,,,0.00,Wunderground v.1.12,2013-07-20 14:58:00,
2013-07-20 11:03:00,79.4,62.3,29.77,ESE,119,0.0,0.0,56,0.00,,,0.00,Wunderground v.1.12,2013-07-20 15:03:00,
2013-07-20 11:08:00,79.6,63.5,29.77,NE,52,2.0,2.0,58,0.00,,,0.00,Wunderground v.1.12,2013-07-20 15:08:00,
2013-07-20 11:13:00,79.9,61.2,29.77,East,88,0.0,1.0,53,0.00,,,0.00,Wunderground v.1.12,2013-07-20 15:13:00,
2013-07-20 11:18:00,80.3,61.1,29.77,East,88,0.0,1.0,52,0.00,,,0.00,Wunderground v.1.12,2013-07-20 15:18:00,
2013-07-20 11:23:00,80.7,63.5,29.77,North,352,1.0,1.0,56,0.00,,,0.00,Wunderground v.1.12,2013-07-20 15:23:00,
2013-07-20 11:28:00,80.9,63.2,29.77,North,349,3.0,3.0,55,0.00,,,0.00,Wunderground v.1.12,2013-07-20 15:28:00,
2013-07-20 11:33:00,80.9,63.2,29.77,NNW,332,0.0,1.0,55,0.00,,,0.00,Wunderground v.1.12,2013-07-20 15:33:00,
2013-07-20 11:38:00,80.9,63.7,29.77,NNW,332,0.0,1.0,56,0.00,,,0.00,Wunderground v.1.12,2013-07-20 15:38:00,
2013-07-20 11:43:00,80.7,63.0,29.77,NNW,332,0.0,1.0,55,0.00,,,0.00,Wunderground v.1.12,2013-07-20 15:43:00,
2013-07-20 11:48:00,81.2,64.5,29.77,WNW,286,1.0,2.0,57,0.00,,,0.00,Wunderground v.1.12,2013-07-20 15:48:00,
2013-07-20 11:53:00,81.6,63.3,29.77,NW,325,2.0,2.0,54,0.00,,,0.00,Wunderground v.1.12,2013-07-20 15:53:00,
2013-07-20 11:58:00,81.6,63.3,29.77,NNW,343,0.0,3.0,54,0.00,,,0.00,Wunderground v.1.12,2013-07-20 15:58:00,
2013-07-20 12:03:00,81.6,63.3,29.77,NNW,346,0.0,1.0,54,0.00,,,0.00,Wunderground v.1.12,2013-07-20 16:03:00,
2013-07-20 12:08:00,82.0,63.7,29.77,NW,326,0.0,2.0,54,0.00,,,0.00,Wunderground v.1.12,2013-07-20 16:08:00,
2013-07-20 12:13:00,82.0,65.8,29.77,WNW,296,2.0,3.0,58,0.00,,,0.00,Wunderground v.1.12,2013-07-20 16:13:00,
2013-07-20 12:18:00,81.8,65.1,29.77,WNW,295,1.0,2.0,57,0.00,,,0.00,Wunderground v.1.12,2013-07-20 16:18:00,
2013-07-20 12:23:00,82.0,63.7,29.77,WNW,302,5.0,5.0,54,0.00,,,0.00,Wunderground v.1.12,2013-07-20 16:23:00,
2013-07-20 12:28:00,82.0,62.6,29.77,NW,304,0.0,2.0,52,0.00,,,0.00,Wunderground v.1.12,2013-07-20 16:28:00,
2013-07-20 12:33:00,82.0,62.6,29.77,NW,304,2.0,4.0,52,0.00,,,0.00,Wunderground v.1.12,2013-07-20 16:33:00,
2013-07-20 12:38:00,82.4,64.1,29.77,WSW,254,4.0,5.0,54,0.00,,,0.00,Wunderground v.1.12,2013-07-20 16:38:00,
2013-07-20 12:43:00,82.8,63.4,29.77,WNW,289,0.0,3.0,52,0.00,,,0.00,Wunderground v.1.12,2013-07-20 16:43:00,
2013-07-20 12:48:00,83.2,65.9,29.77,WNW,295,0.0,2.0,56,0.00,,,0.00,Wunderground v.1.12,2013-07-20 16:48:00,
2013-07-20 12:53:00,83.6,66.8,29.76,WNW,293,0.0,1.0,57,0.00,,,0.00,Wunderground v.1.12,2013-07-20 16:53:00,
2013-07-20 12:58:00,84.0,65.0,29.76,WNW,295,0.0,6.0,53,0.00,,,0.00,Wunderground v.1.12,2013-07-20 16:58:00,
2013-07-20 13:03:00,84.3,64.8,29.76,WNW,297,5.0,5.0,52,0.00,,,0.00,Wunderground v.1.12,2013-07-20 17:03:00,
2013-07-20 13:08:00,84.7,64.0,29.76,WNW,284,5.0,5.0,50,0.00,,,0.00,Wunderground v.1.12,2013-07-20 17:08:00,
2013-07-20 13:13:00,84.5,62.7,29.76,NW,314,2.0,5.0,48,0.00,,,0.00,Wunderground v.1.12,2013-07-20 17:13:00,
2013-07-20 13:18:00,84.5,63.2,29.76,NW,315,4.0,7.0,49,0.00,,,0.00,Wunderground v.1.12,2013-07-20 17:18:00,
2013-07-20 13:23:00,84.5,64.4,29.76,NW,314,1.0,3.0,51,0.00,,,0.00,Wunderground v.1.12,2013-07-20 17:23:00,
2013-07-20 13:28:00,84.5,62.7,29.76,NW,325,6.0,7.0,48,0.00,,,0.00,Wunderground v.1.12,2013-07-20 17:28:00,
2013-07-20 13:33:00,84.9,63.6,29.76,SW,231,6.0,6.0,49,0.00,,,0.00,Wunderground v.1.12,2013-07-20 17:33:00,
2013-07-20 13:38:00,84.9,61.8,29.77,WNW,291,4.0,5.0,46,0.00,,,0.00,Wunderground v.1.12,2013-07-20 17:38:00,
2013-07-20 13:43:00,85.1,65.5,29.77,WNW,293,1.0,2.0,52,0.00,,,0.00,Wunderground v.1.12,2013-07-20 17:43:00,
2013-07-20 13:48:00,85.1,62.0,29.77,West,281,2.0,5.0,46,0.00,,,0.00,Wunderground v.1.12,2013-07-20 17:48:00,
2013-07-20 13:53:00,85.1,63.8,29.77,West,280,3.0,6.0,49,0.00,,,0.00,Wunderground v.1.12,2013-07-20 17:53:00,
2013-07-20 13:58:00,85.3,61.6,29.77,NW,304,2.0,4.0,45,0.00,,,0.00,Wunderground v.1.12,2013-07-20 17:58:00,
2013-07-20 14:04:00,85.5,63.0,29.77,WNW,293,1.0,4.0,47,0.00,,,0.00,Wunderground v.1.12,2013-07-20 18:04:00,
2013-07-20 14:09:00,85.7,62.5,29.77,West,265,4.0,7.0,46,0.00,,,0.00,Wunderground v.1.12,2013-07-20 18:09:00,
2013-07-20 14:14:00,85.7,63.1,29.77,West,273,6.0,9.0,47,0.00,,,0.00,Wunderground v.1.12,2013-07-20 18:14:00,
2013-07-20 14:19:00,85.9,63.3,29.77,WSW,254,2.0,6.0,47,0.00,,,0.00,Wunderground v.1.12,2013-07-20 18:19:00,
2013-07-20 14:24:00,85.9,63.3,29.77,North,358,0.0,6.0,47,0.00,,,0.00,Wunderground v.1.12,2013-07-20 18:24:00,
2013-07-20 14:29:00,85.5,61.7,29.77,WNW,298,4.0,7.0,45,0.00,,,0.00,Wunderground v.1.12,2013-07-20 18:29:00,
2013-07-20 14:35:00,85.5,63.6,29.77,West,260,4.0,5.0,48,0.00,,,0.00,Wunderground v.1.12,2013-07-20 18:35:00,
2013-07-20 14:40:00,85.9,62.1,29.77,WSW,248,5.0,5.0,45,0.00,,,0.00,Wunderground v.1.12,2013-07-20 18:40:00,
2013-07-20 14:45:00,86.1,62.9,29.77,WNW,299,6.0,7.0,46,0.00,,,0.00,Wunderground v.1.12,2013-07-20 18:45:00,
2013-07-20 14:50:00,86.3,62.5,29.77,WNW,297,7.0,10.0,45,0.00,,,0.00,Wunderground v.1.12,2013-07-20 18:50:00,
2013-07-20 14:55:00,86.3,63.1,29.77,WNW,285,1.0,8.0,46,0.00,,,0.00,Wunderground v.1.12,2013-07-20 18:55:00,
2013-07-20 15:00:00,86.5,62.0,29.77,WSW,253,2.0,6.0,44,0.00,,,0.00,Wunderground v.1.12,2013-07-20 19:00:00,
2013-07-20 15:05:00,86.7,63.4,29.77,WSW,253,4.0,6.0,46,0.00,,,0.00,Wunderground v.1.12,2013-07-20 19:05:00,
2013-07-20 15:10:00,86.5,62.0,29.76,West,268,6.0,6.0,44,0.00,,,0.00,Wunderground v.1.12,2013-07-20 19:10:00,
2013-07-20 15:16:00,86.7,62.8,29.76,West,266,4.0,9.0,45,0.00,,,0.00,Wunderground v.1.12,2013-07-20 19:16:00,
2013-07-20 15:21:00,86.7,62.2,29.76,WNW,302,5.0,9.0,44,0.00,,,0.00,Wunderground v.1.12,2013-07-20 19:21:00,
2013-07-20 15:26:00,86.7,61.5,29.76,West,277,5.0,7.0,43,0.00,,,0.00,Wunderground v.1.12,2013-07-20 19:26:00,
2013-07-20 15:31:00,87.0,62.5,29.76,NW,319,1.0,9.0,44,0.00,,,0.00,Wunderground v.1.12,2013-07-20 19:31:00,
2013-07-20 15:36:00,86.7,61.5,29.76,WNW,298,2.0,8.0,43,0.00,,,0.00,Wunderground v.1.12,2013-07-20 19:36:00,
2013-07-20 15:41:00,87.0,63.7,29.75,West,269,5.0,8.0,46,0.00,,,0.00,Wunderground v.1.12,2013-07-20 19:41:00,
2013-07-20 15:48:00,87.0,63.1,29.75,West,269,8.0,8.0,45,0.00,,,0.00,Wunderground v.1.12,2013-07-20 19:48:00,
2013-07-20 15:53:00,86.7,60.2,29.75,West,275,6.0,6.0,41,0.00,,,0.00,Wunderground v.1.12,2013-07-20 19:53:00,
2013-07-20 15:58:00,86.5,62.6,29.75,NW,322,1.0,5.0,45,0.00,,,0.00,Wunderground v.1.12,2013-07-20 19:58:00,
2013-07-20 16:04:00,86.7,61.5,29.75,WNW,294,6.0,6.0,43,0.00,,,0.00,Wunderground v.1.12,2013-07-20 20:04:00,
2013-07-20 16:09:00,87.0,60.5,29.75,West,266,6.0,9.0,41,0.00,,,0.00,Wunderground v.1.12,2013-07-20 20:09:00,
2013-07-20 16:14:00,86.7,61.5,29.75,WNW,302,3.0,6.0,43,0.00,,,0.00,Wunderground v.1.12,2013-07-20 20:14:00,
2013-07-20 16:20:00,86.5,60.7,29.75,West,275,2.0,6.0,42,0.00,,,0.00,Wunderground v.1.12,2013-07-20 20:20:00,
2013-07-20 16:25:00,86.7,59.5,29.76,WNW,287,4.0,5.0,40,0.00,,,0.00,Wunderground v.1.12,2013-07-20 20:25:00,
2013-07-20 16:30:00,86.5,59.3,29.76,WNW,286,0.0,4.0,40,0.00,,,0.00,Wunderground v.1.12,2013-07-20 20:30:00,
2013-07-20 16:36:00,86.5,61.3,29.76,NNW,346,2.0,6.0,43,0.00,,,0.00,Wunderground v.1.12,2013-07-20 20:36:00,
2013-07-20 16:41:00,86.5,60.7,29.76,NW,312,2.0,8.0,42,0.00,,,0.00,Wunderground v.1.12,2013-07-20 20:41:00,
2013-07-20 16:46:00,86.7,61.5,29.76,West,268,7.0,8.0,43,0.00,,,0.00,Wunderground v.1.12,2013-07-20 20:46:00,
2013-07-20 16:51:00,86.5,60.7,29.76,NNW,343,3.0,7.0,42,0.00,,,0.00,Wunderground v.1.12,2013-07-20 20:51:00,
2013-07-20 16:56:00,86.5,60.7,29.76,West,277,6.0,12.0,42,0.00,,,0.00,Wunderground v.1.12,2013-07-20 20:56:00,
2013-07-20 17:03:00,85.5,60.4,29.76,WNW,300,0.0,5.0,43,0.00,,,0.00,Wunderground v.1.12,2013-07-20 21:03:00,
2013-07-20 17:08:00,85.5,62.4,29.77,WSW,255,5.0,5.0,46,0.00,,,0.00,Wunderground v.1.12,2013-07-20 21:08:00,
2013-07-20 17:13:00,85.7,61.3,29.77,NW,304,3.0,4.0,44,0.00,,,0.00,Wunderground v.1.12,2013-07-20 21:13:00,
2013-07-20 17:18:00,85.3,60.3,29.77,NNW,327,2.0,5.0,43,0.00,,,0.00,Wunderground v.1.12,2013-07-20 21:18:00,
2013-07-20 17:23:00,84.5,61.4,29.77,NW,305,9.0,9.0,46,0.00,,,0.00,Wunderground v.1.12,2013-07-20 21:23:00,
2013-07-20 17:29:00,84.7,61.0,29.77,WNW,300,4.0,5.0,45,0.00,,,0.00,Wunderground v.1.12,2013-07-20 21:29:00,
2013-07-20 17:34:00,85.1,60.7,29.77,NNW,327,7.0,11.0,44,0.00,,,0.00,Wunderground v.1.12,2013-07-20 21:34:00,
2013-07-20 17:39:00,85.1,61.4,29.76,North,7,0.0,5.0,45,0.00,,,0.00,Wunderground v.1.12,2013-07-20 21:39:00,
2013-07-20 17:44:00,85.3,60.3,29.76,NNW,339,0.0,4.0,43,0.00,,,0.00,Wunderground v.1.12,2013-07-20 21:44:00,
2013-07-20 17:49:00,85.7,60.0,29.76,NNW,338,4.0,9.0,42,0.00,,,0.00,Wunderground v.1.12,2013-07-20 21:49:00,
2013-07-20 17:54:00,85.5,59.1,29.77,NW,306,5.0,6.0,41,0.00,,,0.00,Wunderground v.1.12,2013-07-20 21:54:00,
2013-07-20 18:00:00,85.7,60.0,29.77,WNW,291,0.0,6.0,42,0.00,,,0.00,Wunderground v.1.12,2013-07-20 22:00:00,
2013-07-20 18:05:00,85.5,58.4,29.77,North,349,3.0,6.0,40,0.00,,,0.00,Wunderground v.1.12,2013-07-20 22:05:00,
2013-07-20 18:10:00,85.5,57.7,29.77,NW,312,0.0,7.0,39,0.00,,,0.00,Wunderground v.1.12,2013-07-20 22:10:00,
2013-07-20 18:15:00,85.3,57.5,29.77,WNW,298,4.0,4.0,39,0.00,,,0.00,Wunderground v.1.12,2013-07-20 22:15:00,
2013-07-20 18:21:00,85.5,57.7,29.77,NNW,344,6.0,7.0,39,0.00,,,0.00,Wunderground v.1.12,2013-07-20 22:21:00,
2013-07-20 18:26:00,85.3,56.8,29.76,NNW,336,4.0,7.0,38,0.00,,,0.00,Wunderground v.1.12,2013-07-20 22:26:00,
2013-07-20 18:31:00,85.1,56.6,29.76,NW,319,1.0,6.0,38,0.00,,,0.00,Wunderground v.1.12,2013-07-20 22:31:00,
2013-07-20 18:36:00,84.9,56.5,29.76,NNW,348,6.0,7.0,38,0.00,,,0.00,Wunderground v.1.12,2013-07-20 22:36:00,
2013-07-20 18:41:00,84.7,57.0,29.77,NNW,337,4.0,7.0,39,0.00,,,0.00,Wunderground v.1.12,2013-07-20 22:41:00,
2013-07-20 18:47:00,84.7,58.4,29.77,NW,309,2.0,6.0,41,0.00,,,0.00,Wunderground v.1.12,2013-07-20 22:47:00,
2013-07-20 18:52:00,84.7,57.0,29.77,NNW,328,7.0,7.0,39,0.00,,,0.00,Wunderground v.1.12,2013-07-20 22:52:00,
2013-07-20 18:58:00,84.7,57.7,29.77,NNW,332,4.0,7.0,40,0.00,,,0.00,Wunderground v.1.12,2013-07-20 22:58:00,
2013-07-20 19:03:00,84.7,57.0,29.77,North,353,0.0,2.0,39,0.00,,,0.00,Wunderground v.1.12,2013-07-20 23:03:00,
2013-07-20 19:08:00,84.5,57.5,29.77,NNW,341,2.0,2.0,40,0.00,,,0.00,Wunderground v.1.12,2013-07-20 23:08:00,
2013-07-20 19:13:00,84.3,58.7,29.77,NNW,330,2.0,2.0,42,0.00,,,0.00,Wunderground v.1.12,2013-07-20 23:13:00,
2013-07-20 19:18:00,84.0,57.8,29.77,NNW,331,3.0,5.0,41,0.00,,,0.00,Wunderground v.1.12,2013-07-20 23:18:00,
2013-07-20 19:23:00,83.6,58.1,29.77,NW,326,3.0,3.0,42,0.00,,,0.00,Wunderground v.1.12,2013-07-20 23:23:00,
2013-07-20 19:28:00,83.2,57.7,29.77,NNW,344,0.0,3.0,42,0.00,,,0.00,Wunderground v.1.12,2013-07-20 23:28:00,
2013-07-20 19:33:00,83.0,59.5,29.77,NNW,331,4.0,7.0,45,0.00,,,0.00,Wunderground v.1.12,2013-07-20 23:33:00,
2013-07-20 19:38:00,82.4,59.5,29.79,NNW,347,4.0,4.0,46,0.00,,,0.00,Wunderground v.1.12,2013-07-20 23:38:00,
2013-07-20 19:43:00,81.8,59.6,29.79,NW,322,3.0,5.0,47,0.00,,,0.00,Wunderground v.1.12,2013-07-20 23:43:00,
2013-07-20 19:48:00,81.4,59.8,29.79,NNW,337,3.0,5.0,48,0.00,,,0.00,Wunderground v.1.12,2013-07-20 23:48:00,
2013-07-20 19:53:00,81.1,60.1,29.79,North,354,2.0,8.0,49,0.00,,,0.00,Wunderground v.1.12,2013-07-20 23:53:00,
2013-07-20 19:59:00,80.9,59.9,29.79,North,357,8.0,8.0,49,0.00,,,0.00,Wunderground v.1.12,2013-07-20 23:59:00,
2013-07-20 20:04:00,80.9,60.5,29.79,North,358,6.0,6.0,50,0.00,,,0.00,Wunderground v.1.12,2013-07-21 00:04:00,
2013-07-20 20:10:00,80.7,60.3,29.79,NNW,339,6.0,7.0,50,0.00,,,0.00,Wunderground v.1.12,2013-07-21 00:10:00,
2013-07-20 20:15:00,80.5,61.3,29.79,North,353,8.0,8.0,52,0.00,,,0.00,Wunderground v.1.12,2013-07-21 00:15:00,
2013-07-20 20:20:00,80.1,60.9,29.79,North,359,2.0,7.0,52,0.00,,,0.00,Wunderground v.1.12,2013-07-21 00:20:00,
2013-07-20 20:25:00,79.8,61.1,29.80,North,352,3.0,11.0,53,0.00,,,0.00,Wunderground v.1.12,2013-07-21 00:25:00,
2013-07-20 20:30:00,79.6,62.0,29.80,NW,316,5.0,5.0,55,0.00,,,0.00,Wunderground v.1.12,2013-07-21 00:30:00,
2013-07-20 20:35:00,79.4,61.3,29.80,North,10,5.0,7.0,54,0.00,,,0.00,Wunderground v.1.12,2013-07-21 00:35:00,
2013-07-20 20:42:00,79.2,61.1,29.79,NNE,23,7.0,7.0,54,0.00,,,0.00,Wunderground v.1.12,2013-07-21 00:42:00,
2013-07-20 20:47:00,79.0,60.9,29.79,NNW,340,8.0,8.0,54,0.00,,,0.00,Wunderground v.1.12,2013-07-21 00:47:00,
2013-07-20 20:53:00,78.8,60.7,29.80,North,349,3.0,9.0,54,0.00,,,0.00,Wunderground v.1.12,2013-07-21 00:53:00,
2013-07-20 20:58:00,78.8,61.3,29.80,NNW,331,0.0,4.0,55,0.00,,,0.00,Wunderground v.1.12,2013-07-21 00:58:00,
2013-07-20 21:03:00,78.6,61.6,29.80,NNW,331,1.0,2.0,56,0.00,,,0.00,Wunderground v.1.12,2013-07-21 01:03:00,
2013-07-20 21:08:00,78.5,62.0,29.80,NNW,333,2.0,2.0,57,0.00,,,0.00,Wunderground v.1.12,2013-07-21 01:08:00,
2013-07-20 21:13:00,78.1,62.1,29.80,North,352,3.0,3.0,58,0.00,,,0.00,Wunderground v.1.12,2013-07-21 01:13:00,
2013-07-20 21:20:00,77.7,62.2,29.80,North,352,0.0,2.0,59,0.00,,,0.00,Wunderground v.1.12,2013-07-21 01:20:00,
2013-07-20 21:25:00,77.6,62.1,29.80,North,354,3.0,4.0,59,0.00,,,0.00,Wunderground v.1.12,2013-07-21 01:25:00,
2013-07-20 21:30:00,77.4,62.4,29.80,North,354,0.0,1.0,60,0.00,,,0.00,Wunderground v.1.12,2013-07-21 01:30:00,
2013-07-20 21:37:00,77.0,62.5,29.80,North,354,0.0,0.0,61,0.00,,,0.00,Wunderground v.1.12,2013-07-21 01:37:00,
2013-07-20 21:42:00,76.5,62.5,29.81,NE,37,1.0,7.0,62,0.00,,,0.00,Wunderground v.1.12,2013-07-21 01:42:00,
2013-07-20 21:47:00,76.3,62.3,29.81,NE,35,0.0,2.0,62,0.00,,,0.00,Wunderground v.1.12,2013-07-21 01:47:00,
2013-07-20 21:53:00,76.1,62.1,29.82,NE,35,0.0,1.0,62,0.00,,,0.00,Wunderground v.1.12,2013-07-21 01:53:00,
2013-07-20 21:59:00,76.1,62.1,29.82,NE,35,0.0,0.0,62,0.00,,,0.00,Wunderground v.1.12,2013-07-21 01:59:00,
2013-07-20 22:05:00,75.8,62.3,29.82,NE,35,0.0,0.0,63,0.00,,,0.00,Wunderground v.1.12,2013-07-21 02:05:00,
2013-07-20 22:10:00,75.4,61.9,29.83,NE,35,0.0,0.0,63,0.00,,,0.00,Wunderground v.1.12,2013-07-21 02:10:00,
2013-07-20 22:15:00,75.1,62.1,29.83,NE,35,0.0,0.0,64,0.00,,,0.00,Wunderground v.1.12,2013-07-21 02:15:00,
2013-07-20 22:20:00,74.9,62.3,29.83,NE,35,0.0,1.0,65,0.00,,,0.00,Wunderground v.1.12,2013-07-21 02:20:00,
2013-07-20 22:26:00,74.6,62.5,29.83,NE,35,0.0,0.0,66,0.00,,,0.00,Wunderground v.1.12,2013-07-21 02:26:00,
2013-07-20 22:31:00,74.4,62.7,29.83,NE,35,0.0,0.0,67,0.00,,,0.00,Wunderground v.1.12,2013-07-21 02:31:00,
2013-07-20 22:36:00,74.0,62.8,29.83,NE,35,0.0,0.0,68,0.00,,,0.00,Wunderground v.1.12,2013-07-21 02:36:00,
2013-07-20 22:41:00,73.9,63.1,29.84,NE,35,0.0,0.0,69,0.00,,,0.00,Wunderground v.1.12,2013-07-21 02:41:00,
2013-07-20 22:46:00,73.5,63.1,29.84,NE,35,0.0,0.0,70,0.00,,,0.00,Wunderground v.1.12,2013-07-21 02:46:00,
2013-07-20 22:52:00,73.2,63.2,29.84,NE,35,0.0,0.0,71,0.00,,,0.00,Wunderground v.1.12,2013-07-21 02:52:00,
2013-07-20 22:58:00,73.0,63.0,29.84,NE,35,0.0,0.0,71,0.00,,,0.00,Wunderground v.1.12,2013-07-21 02:58:00,
2013-07-20 23:03:00,72.7,63.1,29.84,NE,35,0.0,0.0,72,0.00,,,0.00,Wunderground v.1.12,2013-07-21 03:03:00,
2013-07-20 23:08:00,72.5,63.4,29.85,NE,35,0.0,0.0,73,0.00,,,0.00,Wunderground v.1.12,2013-07-21 03:08:00,
2013-07-20 23:13:00,72.1,63.4,29.85,NE,35,0.0,0.0,74,0.00,,,0.00,Wunderground v.1.12,2013-07-21 03:13:00,
2013-07-20 23:18:00,72.0,63.3,29.85,NE,35,0.0,0.0,74,0.00,,,0.00,Wunderground v.1.12,2013-07-21 03:18:00,
2013-07-20 23:23:00,71.8,63.8,29.85,NE,35,0.0,0.0,76,0.00,,,0.00,Wunderground v.1.12,2013-07-21 03:23:00,
2013-07-20 23:28:00,71.6,63.6,29.85,NE,35,0.0,0.0,76,0.00,,,0.00,Wunderground v.1.12,2013-07-21 03:28:00,
2013-07-20 23:34:00,71.5,63.9,29.85,NE,35,0.0,0.0,77,0.00,,,0.00,Wunderground v.1.12,2013-07-21 03:34:00,
2013-07-20 23:39:00,71.3,64.1,29.85,NE,35,0.0,0.0,78,0.00,,,0.00,Wunderground v.1.12,2013-07-21 03:39:00,
2013-07-20 23:44:00,71.1,63.9,29.85,NE,35,0.0,0.0,78,0.00,,,0.00,Wunderground v.1.12,2013-07-21 03:44:00,
2013-07-20 23:49:00,70.9,64.1,29.85,NE,35,0.0,0.0,79,0.00,,,0.00,Wunderground v.1.12,2013-07-21 03:49:00,
2013-07-20 23:54:00,70.8,64.3,29.85,NE,35,0.0,0.0,80,0.00,,,0.00,Wunderground v.1.12,2013-07-21 03:54:00,
2013-07-20 23:59:00,70.6,64.1,29.85,NE,35,0.0,0.0,80,0.00,,,0.00,Wunderground v.1.12,2013-07-21 03:59:00,